Terminal Aerodrome Forecast
Issued by NWS Grand Junction, CO

Home | Current Version | Previous Version | Text Only | Print | Product List | Glossary On
Versions: 1 2 3 4 5 6 7 8 9 10 11 12 13 14 15 16 17 18 19 20 21 22 23 24 25 26 27 28 29 30 31 32 33 34 35 36 37 38 39 40 41 42 43 44 45 46
000
FTUS45 KGJT 230543
TAFGJT
TAF
KGJT 230543Z 2306/2406 13014KT 4SM -SN BR OVC021
     FM230800 14005KT 5SM -SN OVC035
     FM231100 14006KT 4SM -RASN OVC040 WS020/20030KT
     FM231600 17008KT 6SM -RASN BKN030
     FM232000 24010KT 5SM -RA OVC030
     FM240000 26006KT P6SM BKN050=

USA.gov is the U.S. government's official web portal to all federal, state and local government web resources and services.